PILOTS ONLINE: 336    ATC ONLINE: 78

NZWN

Wellington International Airport

Location

IATA WLG
City Wellington
Country  New Zealand
Latitude 41° 19' 37" S
Longitude 174° 48' 17" E
Elevation 41 ft
Type Large Airport

Map

Weather

METAR
2014/10/23 00:00
NZWN 230000Z AUTO 35025G38KT 9999 BKN021/// 16/09 Q1011 NOSIG
TAF
2014/10/22 18:12
TAF NZWN 221705Z 2218/2318 01012KT 9999 BKN020 
      BECMG 2220/2222 36020G30KT 
      BECMG 2308/2310 33015KT 
      TEMPO 2316/2318 6000 RA BKN014 
     FM231700 18030G40KT 9999 BKN020

Runways

16/34 6352 ft / 148 ft

Outbound flights

Callsign Flying to Pilot ATD/STD ETA Aircraft

Inbound flights

Callsign Flying from Pilot ATD ETA Aircraft